This is the latest recevied weather packets stored in our database for station/object EW6851. If no packets are shown the sender has not sent any weather packets the latest 10 day(s).
| Time | Temp. | Humidity | Pressure | Rain* | Wind** | Luminosity | Snow |
|---|---|---|---|---|---|---|---|
| 1778172421 | 21.67° C | 63% | 1008.8 hPa | 0 mm | - | 76 W/m² | - |
| 1778171818 | 21.67° C | 62% | 1008.8 hPa | 0 mm | - | 211 W/m² | - |
| 1778171219 | 21.67° C | 61% | 1008.6 hPa | 0 mm | - | 163 W/m² | - |
| 1778170918 | 22.22° C | 59% | 1008.5 hPa | 0 mm | - | 151 W/m² | - |
| 1778170027 | 22.22° C | 57% | 1008.4 hPa | 0 mm | - | 220 W/m² | - |
| 1778169721 | 22.22° C | 56% | 1008.3 hPa | 0 mm | - | 257 W/m² | - |
| 1778168821 | 22.22° C | 55% | 1008.3 hPa | 0 mm | - | 237 W/m² | - |
| 1778167618 | 22.78° C | 54% | 1008.3 hPa | 0 mm | - | 445 W/m² | - |
| 1778167318 | 23.33° C | 53% | 1008.4 hPa | 0 mm | - | 190 W/m² | - |
| 1778165818 | 22.78° C | 56% | 1008.1 hPa | 0 mm | - | 443 W/m² | - |
| 1778164924 | 22.78° C | 55% | 1008.2 hPa | 0 mm | - | 352 W/m² | - |
| 1778164321 | 23.33° C | 54% | 1008.1 hPa | 0 mm | - | 267 W/m² | - |
| 1778163121 | 22.78° C | 54% | 1008.2 hPa | 0 mm | - | 371 W/m² | - |
| 1778159818 | 23.89° C | 50% | 1008.9 hPa | 0 mm | - | 367 W/m² | - |
| 1778159518 | 23.89° C | 48% | 1008.7 hPa | 0 mm | - | 403 W/m² | - |
| 1778158318 | 23.89° C | 48% | 1008.9 hPa | 0 mm | - | 679 W/m² | - |
| 1778157718 | 23.89° C | 46% | 1009.1 hPa | 0 mm | - | 814 W/m² | - |
| 1778156824 | 23.33° C | 45% | 1009.1 hPa | 0 mm | - | 902 W/m² | - |
| 1778156219 | 23.33° C | 45% | 1009 hPa | 0 mm | - | 517 W/m² | - |
| 1778154418 | 24.44° C | 40% | 1009.5 hPa | 0 mm | - | 441 W/m² | - |
| 1778153818 | 23.89° C | 39% | 1009.4 hPa | 0 mm | - | 522 W/m² | - |
| 1778153525 | 23.89° C | 37% | 1009.6 hPa | 0 mm | - | 485 W/m² | - |
| 1778153218 | 24.44° C | 36% | 1009.8 hPa | 0 mm | - | 680 W/m² | - |
| 1778152918 | 24.44° C | 35% | 1009.7 hPa | 0 mm | - | 909 W/m² | - |
| 1778152019 | 25° C | 32% | 1009.9 hPa | 0 mm | - | 747 W/m² | - |
* Rain latest hour (hover to see other rain measurements)
** Current wind speed in m/s (hover to see current wind gust speed)